sensor_id;sensor_type;location;lat;lon;timestamp;temperature;humidity
47310;DHT22;33046;52.270;6.832;2022-08-01T00:01:31;23.40;91.20
47310;DHT22;33046;52.270;6.832;2022-08-01T00:03:38;23.40;91.20
47310;DHT22;33046;52.270;6.832;2022-08-01T00:05:45;23.50;91.20
47310;DHT22;33046;52.270;6.832;2022-08-01T00:07:52;23.40;91.20
47310;DHT22;33046;52.270;6.832;2022-08-01T00:09:59;23.40;91.20
47310;DHT22;33046;52.270;6.832;2022-08-01T00:12:06;23.40;91.10
47310;DHT22;33046;52.270;6.832;2022-08-01T00:14:13;23.40;91.20
47310;DHT22;33046;52.270;6.832;2022-08-01T00:16:21;23.40;91.20
47310;DHT22;33046;52.270;6.832;2022-08-01T00:18:27;23.40;91.20
47310;DHT22;33046;52.270;6.832;2022-08-01T00:20:34;23.40;91.20
47310;DHT22;33046;52.270;6.832;2022-08-01T00:22:41;23.40;91.20
47310;DHT22;33046;52.270;6.832;2022-08-01T00:24:48;23.40;91.10
47310;DHT22;33046;52.270;6.832;2022-08-01T00:26:55;23.40;91.10
47310;DHT22;33046;52.270;6.832;2022-08-01T00:29:02;23.40;91.10
47310;DHT22;33046;52.270;6.832;2022-08-01T00:31:09;23.40;91.20
47310;DHT22;33046;52.270;6.832;2022-08-01T00:33:17;23.40;91.00
47310;DHT22;33046;52.270;6.832;2022-08-01T00:35:24;23.40;91.10
47310;DHT22;33046;52.270;6.832;2022-08-01T00:37:30;23.40;91.10
47310;DHT22;33046;52.270;6.832;2022-08-01T00:39:37;23.40;91.00
47310;DHT22;33046;52.270;6.832;2022-08-01T00:41:44;23.40;91.00
47310;DHT22;33046;52.270;6.832;2022-08-01T00:43:51;23.40;91.00
47310;DHT22;33046;52.270;6.832;2022-08-01T00:45:57;23.40;91.00
47310;DHT22;33046;52.270;6.832;2022-08-01T00:48:05;23.40;91.10
47310;DHT22;33046;52.270;6.832;2022-08-01T00:50:13;23.30;91.10
47310;DHT22;33046;52.270;6.832;2022-08-01T00:52:20;23.40;91.10
47310;DHT22;33046;52.270;6.832;2022-08-01T00:54:27;23.40;91.10
47310;DHT22;33046;52.270;6.832;2022-08-01T00:56:34;23.40;91.10
47310;DHT22;33046;52.270;6.832;2022-08-01T00:58:41;23.40;91.10
47310;DHT22;33046;52.270;6.832;2022-08-01T01:00:48;23.40;91.00
47310;DHT22;33046;52.270;6.832;2022-08-01T01:02:55;23.30;91.00
47310;DHT22;33046;52.270;6.832;2022-08-01T01:05:02;23.40;91.00
47310;DHT22;33046;52.270;6.832;2022-08-01T01:07:18;23.30;91.10
47310;DHT22;33046;52.270;6.832;2022-08-01T01:09:33;23.30;91.00
47310;DHT22;33046;52.270;6.832;2022-08-01T01:11:46;23.30;91.00
47310;DHT22;33046;52.270;6.832;2022-08-01T01:13:57;23.30;91.00
47310;DHT22;33046;52.270;6.832;2022-08-01T01:16:12;23.30;91.10
47310;DHT22;33046;52.270;6.832;2022-08-01T01:18:23;23.30;91.00
47310;DHT22;33046;52.270;6.832;2022-08-01T01:20:34;23.30;91.00
47310;DHT22;33046;52.270;6.832;2022-08-01T01:23:04;23.30;91.00
47310;DHT22;33046;52.270;6.832;2022-08-01T01:25:32;23.30;91.00
47310;DHT22;33046;52.270;6.832;2022-08-01T01:27:51;23.30;91.00
47310;DHT22;33046;52.270;6.832;2022-08-01T01:30:04;23.30;91.00
47310;DHT22;33046;52.270;6.832;2022-08-01T01:32:15;23.30;90.90
47310;DHT22;33046;52.270;6.832;2022-08-01T01:34:23;23.30;91.00
47310;DHT22;33046;52.270;6.832;2022-08-01T01:36:31;23.30;91.00
47310;DHT22;33046;52.270;6.832;2022-08-01T01:38:41;23.30;91.00
47310;DHT22;33046;52.270;6.832;2022-08-01T01:40:50;23.30;91.00
47310;DHT22;33046;52.270;6.832;2022-08-01T01:42:58;23.30;90.90
47310;DHT22;33046;52.270;6.832;2022-08-01T01:45:08;23.30;91.00
47310;DHT22;33046;52.270;6.832;2022-08-01T01:47:16;23.30;90.90
47310;DHT22;33046;52.270;6.832;2022-08-01T01:49:25;23.20;90.90
47310;DHT22;33046;52.270;6.832;2022-08-01T01:51:33;23.30;91.10
47310;DHT22;33046;52.270;6.832;2022-08-01T01:53:40;23.20;91.00
47310;DHT22;33046;52.270;6.832;2022-08-01T01:55:51;23.20;91.00
47310;DHT22;33046;52.270;6.832;2022-08-01T01:57:59;23.20;90.90
47310;DHT22;33046;52.270;6.832;2022-08-01T02:00:09;23.20;91.00
47310;DHT22;33046;52.270;6.832;2022-08-01T02:02:17;23.20;90.90
47310;DHT22;33046;52.270;6.832;2022-08-01T02:04:27;23.20;91.00
47310;DHT22;33046;52.270;6.832;2022-08-01T02:06:34;23.20;91.00
47310;DHT22;33046;52.270;6.832;2022-08-01T02:08:42;23.20;91.00
47310;DHT22;33046;52.270;6.832;2022-08-01T02:10:51;23.20;91.10
47310;DHT22;33046;52.270;6.832;2022-08-01T02:13:02;23.20;91.00
47310;DHT22;33046;52.270;6.832;2022-08-01T02:15:11;23.20;91.00
47310;DHT22;33046;52.270;6.832;2022-08-01T02:17:20;23.20;91.10
47310;DHT22;33046;52.270;6.832;2022-08-01T02:19:27;23.20;91.10
47310;DHT22;33046;52.270;6.832;2022-08-01T02:21:37;23.20;91.00
47310;DHT22;33046;52.270;6.832;2022-08-01T02:23:45;23.20;91.00
47310;DHT22;33046;52.270;6.832;2022-08-01T02:25:55;23.20;91.00
47310;DHT22;33046;52.270;6.832;2022-08-01T02:28:07;23.20;91.00
47310;DHT22;33046;52.270;6.832;2022-08-01T02:30:16;23.20;91.10
47310;DHT22;33046;52.270;6.832;2022-08-01T02:32:25;23.20;91.00
47310;DHT22;33046;52.270;6.832;2022-08-01T02:34:35;23.20;91.00
47310;DHT22;33046;52.270;6.832;2022-08-01T02:36:44;23.20;91.00
47310;DHT22;33046;52.270;6.832;2022-08-01T02:38:54;23.20;91.00
47310;DHT22;33046;52.270;6.832;2022-08-01T02:41:05;23.20;91.00
47310;DHT22;33046;52.270;6.832;2022-08-01T02:43:13;23.20;91.00
47310;DHT22;33046;52.270;6.832;2022-08-01T02:45:25;23.20;91.00
47310;DHT22;33046;52.270;6.832;2022-08-01T02:47:33;23.20;91.00
47310;DHT22;33046;52.270;6.832;2022-08-01T02:49:42;23.10;90.90
47310;DHT22;33046;52.270;6.832;2022-08-01T02:51:51;23.10;90.90
47310;DHT22;33046;52.270;6.832;2022-08-01T02:54:02;23.10;91.00
47310;DHT22;33046;52.270;6.832;2022-08-01T02:56:11;23.10;91.00
47310;DHT22;33046;52.270;6.832;2022-08-01T02:58:19;23.10;91.00
47310;DHT22;33046;52.270;6.832;2022-08-01T03:00:28;23.10;91.00
47310;DHT22;33046;52.270;6.832;2022-08-01T03:02:36;23.10;91.00
47310;DHT22;33046;52.270;6.832;2022-08-01T03:04:44;23.10;91.00
47310;DHT22;33046;52.270;6.832;2022-08-01T03:06:53;23.10;91.00
47310;DHT22;33046;52.270;6.832;2022-08-01T03:09:01;23.10;90.90
47310;DHT22;33046;52.270;6.832;2022-08-01T03:11:10;23.10;91.00
47310;DHT22;33046;52.270;6.832;2022-08-01T03:13:18;23.10;91.00
47310;DHT22;33046;52.270;6.832;2022-08-01T03:15:29;23.10;91.00
47310;DHT22;33046;52.270;6.832;2022-08-01T03:17:39;23.10;91.00
47310;DHT22;33046;52.270;6.832;2022-08-01T03:19:48;23.10;91.00
47310;DHT22;33046;52.270;6.832;2022-08-01T03:21:57;23.10;91.00
47310;DHT22;33046;52.270;6.832;2022-08-01T03:24:06;23.00;91.00
47310;DHT22;33046;52.270;6.832;2022-08-01T03:26:14;23.10;91.00
47310;DHT22;33046;52.270;6.832;2022-08-01T03:28:22;23.10;91.10
47310;DHT22;33046;52.270;6.832;2022-08-01T03:30:31;23.10;91.00
47310;DHT22;33046;52.270;6.832;2022-08-01T03:32:39;23.10;91.00
47310;DHT22;33046;52.270;6.832;2022-08-01T03:34:46;23.00;91.00
47310;DHT22;33046;52.270;6.832;2022-08-01T03:36:56;23.10;91.10
47310;DHT22;33046;52.270;6.832;2022-08-01T03:39:08;23.10;91.00
47310;DHT22;33046;52.270;6.832;2022-08-01T03:41:19;23.10;91.20
47310;DHT22;33046;52.270;6.832;2022-08-01T03:43:30;23.10;91.10
47310;DHT22;33046;52.270;6.832;2022-08-01T03:45:41;23.10;91.00
47310;DHT22;33046;52.270;6.832;2022-08-01T03:47:49;23.10;91.00
47310;DHT22;33046;52.270;6.832;2022-08-01T03:49:58;23.10;91.20
47310;DHT22;33046;52.270;6.832;2022-08-01T03:52:07;23.00;91.00
47310;DHT22;33046;52.270;6.832;2022-08-01T03:54:19;23.10;91.00
47310;DHT22;33046;52.270;6.832;2022-08-01T03:56:27;23.10;91.20
47310;DHT22;33046;52.270;6.832;2022-08-01T03:58:38;23.00;91.10
47310;DHT22;33046;52.270;6.832;2022-08-01T04:00:48;23.00;91.00
47310;DHT22;33046;52.270;6.832;2022-08-01T04:02:55;23.00;91.00
47310;DHT22;33046;52.270;6.832;2022-08-01T04:05:03;23.00;91.00
47310;DHT22;33046;52.270;6.832;2022-08-01T04:07:21;23.00;91.00
47310;DHT22;33046;52.270;6.832;2022-08-01T04:09:28;23.00;91.20
47310;DHT22;33046;52.270;6.832;2022-08-01T04:11:35;23.00;91.30
47310;DHT22;33046;52.270;6.832;2022-08-01T04:13:42;23.00;91.10
47310;DHT22;33046;52.270;6.832;2022-08-01T04:15:50;23.00;91.10
47310;DHT22;33046;52.270;6.832;2022-08-01T04:17:57;23.00;91.10
47310;DHT22;33046;52.270;6.832;2022-08-01T04:20:05;23.00;91.20
47310;DHT22;33046;52.270;6.832;2022-08-01T04:22:14;23.00;91.20
47310;DHT22;33046;52.270;6.832;2022-08-01T04:24:22;23.00;91.10
47310;DHT22;33046;52.270;6.832;2022-08-01T04:26:31;23.00;91.10
47310;DHT22;33046;52.270;6.832;2022-08-01T04:28:39;23.00;91.10
47310;DHT22;33046;52.270;6.832;2022-08-01T04:30:50;23.00;91.20
47310;DHT22;33046;52.270;6.832;2022-08-01T04:33:00;23.00;91.10
47310;DHT22;33046;52.270;6.832;2022-08-01T04:35:09;23.00;91.10
47310;DHT22;33046;52.270;6.832;2022-08-01T04:37:18;23.00;91.10
47310;DHT22;33046;52.270;6.832;2022-08-01T04:39:28;23.00;91.10
47310;DHT22;33046;52.270;6.832;2022-08-01T04:41:37;23.00;91.10
47310;DHT22;33046;52.270;6.832;2022-08-01T04:43:44;23.00;91.10
47310;DHT22;33046;52.270;6.832;2022-08-01T04:45:54;23.00;91.20
47310;DHT22;33046;52.270;6.832;2022-08-01T04:48:02;23.00;91.10
47310;DHT22;33046;52.270;6.832;2022-08-01T04:50:11;23.00;91.00
47310;DHT22;33046;52.270;6.832;2022-08-01T04:52:18;23.00;91.10
47310;DHT22;33046;52.270;6.832;2022-08-01T04:54:28;23.00;91.00
47310;DHT22;33046;52.270;6.832;2022-08-01T04:56:35;23.00;91.00
47310;DHT22;33046;52.270;6.832;2022-08-01T04:58:42;23.00;91.00
47310;DHT22;33046;52.270;6.832;2022-08-01T05:00:49;23.00;91.00
47310;DHT22;33046;52.270;6.832;2022-08-01T05:02:57;22.90;91.00
47310;DHT22;33046;52.270;6.832;2022-08-01T05:05:05;22.90;91.00
47310;DHT22;33046;52.270;6.832;2022-08-01T05:07:12;22.90;91.10
47310;DHT22;33046;52.270;6.832;2022-08-01T05:09:19;23.00;91.10
47310;DHT22;33046;52.270;6.832;2022-08-01T05:11:26;22.90;91.00
47310;DHT22;33046;52.270;6.832;2022-08-01T05:13:33;22.90;91.00
47310;DHT22;33046;52.270;6.832;2022-08-01T05:15:39;23.00;91.00
47310;DHT22;33046;52.270;6.832;2022-08-01T05:17:46;23.00;91.10
47310;DHT22;33046;52.270;6.832;2022-08-01T05:19:54;23.00;91.00
47310;DHT22;33046;52.270;6.832;2022-08-01T05:22:02;23.00;91.00
47310;DHT22;33046;52.270;6.832;2022-08-01T05:24:09;23.10;91.70
47310;DHT22;33046;52.270;6.832;2022-08-01T05:26:16;23.10;91.90
47310;DHT22;33046;52.270;6.832;2022-08-01T05:28:23;23.10;92.10
47310;DHT22;33046;52.270;6.832;2022-08-01T05:30:30;23.10;92.30
47310;DHT22;33046;52.270;6.832;2022-08-01T05:32:37;23.10;92.40
47310;DHT22;33046;52.270;6.832;2022-08-01T05:34:44;23.10;92.40
47310;DHT22;33046;52.270;6.832;2022-08-01T05:36:52;23.10;92.30
47310;DHT22;33046;52.270;6.832;2022-08-01T05:39:02;23.10;92.40
47310;DHT22;33046;52.270;6.832;2022-08-01T05:41:10;23.10;92.30
47310;DHT22;33046;52.270;6.832;2022-08-01T05:43:17;23.10;92.20
47310;DHT22;33046;52.270;6.832;2022-08-01T05:45:24;23.10;92.40
47310;DHT22;33046;52.270;6.832;2022-08-01T05:47:30;23.10;92.30
47310;DHT22;33046;52.270;6.832;2022-08-01T05:49:37;23.20;92.20
47310;DHT22;33046;52.270;6.832;2022-08-01T05:51:44;23.20;92.30
47310;DHT22;33046;52.270;6.832;2022-08-01T05:53:52;23.20;92.20
47310;DHT22;33046;52.270;6.832;2022-08-01T05:56:00;23.20;92.20
47310;DHT22;33046;52.270;6.832;2022-08-01T05:58:06;23.30;92.10
47310;DHT22;33046;52.270;6.832;2022-08-01T06:00:14;23.30;92.10
47310;DHT22;33046;52.270;6.832;2022-08-01T06:02:20;23.30;92.10
47310;DHT22;33046;52.270;6.832;2022-08-01T06:04:27;23.30;92.20
47310;DHT22;33046;52.270;6.832;2022-08-01T06:06:34;23.30;92.10
47310;DHT22;33046;52.270;6.832;2022-08-01T06:08:41;23.30;92.00
47310;DHT22;33046;52.270;6.832;2022-08-01T06:10:49;23.40;92.00
47310;DHT22;33046;52.270;6.832;2022-08-01T06:12:56;23.40;91.90
47310;DHT22;33046;52.270;6.832;2022-08-01T06:15:03;23.40;91.90
47310;DHT22;33046;52.270;6.832;2022-08-01T06:17:10;23.30;91.90
47310;DHT22;33046;52.270;6.832;2022-08-01T06:19:16;23.30;91.90
47310;DHT22;33046;52.270;6.832;2022-08-01T06:21:23;23.30;91.90
47310;DHT22;33046;52.270;6.832;2022-08-01T06:23:30;23.30;92.00
47310;DHT22;33046;52.270;6.832;2022-08-01T06:25:38;23.20;92.00
47310;DHT22;33046;52.270;6.832;2022-08-01T06:27:46;23.30;92.10
47310;DHT22;33046;52.270;6.832;2022-08-01T06:29:53;23.30;92.20
47310;DHT22;33046;52.270;6.832;2022-08-01T06:32:00;23.20;92.30
47310;DHT22;33046;52.270;6.832;2022-08-01T06:34:07;23.20;92.20
47310;DHT22;33046;52.270;6.832;2022-08-01T06:36:14;23.20;92.10
47310;DHT22;33046;52.270;6.832;2022-08-01T06:38:21;23.20;92.00
47310;DHT22;33046;52.270;6.832;2022-08-01T06:40:28;23.20;91.90
47310;DHT22;33046;52.270;6.832;2022-08-01T06:42:35;23.20;91.90
47310;DHT22;33046;52.270;6.832;2022-08-01T06:44:43;23.20;92.00
47310;DHT22;33046;52.270;6.832;2022-08-01T06:46:50;23.20;91.90
47310;DHT22;33046;52.270;6.832;2022-08-01T06:48:57;23.20;92.00
47310;DHT22;33046;52.270;6.832;2022-08-01T06:51:03;23.30;92.00
47310;DHT22;33046;52.270;6.832;2022-08-01T06:53:10;23.30;91.90
47310;DHT22;33046;52.270;6.832;2022-08-01T06:55:17;23.30;91.80
47310;DHT22;33046;52.270;6.832;2022-08-01T06:57:24;23.30;91.80
47310;DHT22;33046;52.270;6.832;2022-08-01T06:59:30;23.30;91.70
47310;DHT22;33046;52.270;6.832;2022-08-01T07:01:39;23.30;91.90
47310;DHT22;33046;52.270;6.832;2022-08-01T07:03:45;23.30;92.30
47310;DHT22;33046;52.270;6.832;2022-08-01T07:05:52;23.30;92.50
47310;DHT22;33046;52.270;6.832;2022-08-01T07:07:59;23.30;92.60
47310;DHT22;33046;52.270;6.832;2022-08-01T07:10:07;23.30;92.60
47310;DHT22;33046;52.270;6.832;2022-08-01T07:12:13;23.30;92.60
47310;DHT22;33046;52.270;6.832;2022-08-01T07:14:21;23.30;92.60
47310;DHT22;33046;52.270;6.832;2022-08-01T07:16:28;23.30;92.50
47310;DHT22;33046;52.270;6.832;2022-08-01T07:18:36;23.30;92.60
47310;DHT22;33046;52.270;6.832;2022-08-01T07:20:43;23.40;92.20
47310;DHT22;33046;52.270;6.832;2022-08-01T07:22:49;23.40;92.50
47310;DHT22;33046;52.270;6.832;2022-08-01T07:24:56;23.40;92.50
47310;DHT22;33046;52.270;6.832;2022-08-01T07:27:03;23.40;92.40
47310;DHT22;33046;52.270;6.832;2022-08-01T07:29:10;23.40;92.30
47310;DHT22;33046;52.270;6.832;2022-08-01T07:31:17;23.40;92.20
47310;DHT22;33046;52.270;6.832;2022-08-01T07:33:24;23.40;92.30
47310;DHT22;33046;52.270;6.832;2022-08-01T07:35:32;23.40;92.20
47310;DHT22;33046;52.270;6.832;2022-08-01T07:37:39;23.40;92.20
47310;DHT22;33046;52.270;6.832;2022-08-01T07:39:46;23.40;92.20
47310;DHT22;33046;52.270;6.832;2022-08-01T07:41:52;23.40;92.10
47310;DHT22;33046;52.270;6.832;2022-08-01T07:43:59;23.50;92.00
47310;DHT22;33046;52.270;6.832;2022-08-01T07:46:08;23.50;91.90
47310;DHT22;33046;52.270;6.832;2022-08-01T07:48:15;23.50;91.80
47310;DHT22;33046;52.270;6.832;2022-08-01T07:50:22;23.50;91.70
47310;DHT22;33046;52.270;6.832;2022-08-01T07:52:30;23.60;91.80
47310;DHT22;33046;52.270;6.832;2022-08-01T07:54:37;23.50;91.80
47310;DHT22;33046;52.270;6.832;2022-08-01T07:56:44;23.60;91.80
47310;DHT22;33046;52.270;6.832;2022-08-01T07:58:50;23.60;91.70
47310;DHT22;33046;52.270;6.832;2022-08-01T08:00:57;23.60;91.70
47310;DHT22;33046;52.270;6.832;2022-08-01T08:03:04;23.60;91.60
47310;DHT22;33046;52.270;6.832;2022-08-01T08:05:11;23.70;91.40
47310;DHT22;33046;52.270;6.832;2022-08-01T08:07:18;23.80;91.30
47310;DHT22;33046;52.270;6.832;2022-08-01T08:09:26;23.80;91.10
47310;DHT22;33046;52.270;6.832;2022-08-01T08:11:33;23.80;91.30
47310;DHT22;33046;52.270;6.832;2022-08-01T08:13:39;23.90;90.90
47310;DHT22;33046;52.270;6.832;2022-08-01T08:15:46;23.80;90.80
47310;DHT22;33046;52.270;6.832;2022-08-01T08:17:53;23.80;91.00
47310;DHT22;33046;52.270;6.832;2022-08-01T08:20:00;23.80;91.00
47310;DHT22;33046;52.270;6.832;2022-08-01T08:22:07;23.80;90.90
47310;DHT22;33046;52.270;6.832;2022-08-01T08:24:14;23.90;90.80
47310;DHT22;33046;52.270;6.832;2022-08-01T08:26:23;23.90;90.40
47310;DHT22;33046;52.270;6.832;2022-08-01T08:28:29;23.90;90.50
47310;DHT22;33046;52.270;6.832;2022-08-01T08:30:36;24.00;90.00
47310;DHT22;33046;52.270;6.832;2022-08-01T08:32:43;24.00;90.30
47310;DHT22;33046;52.270;6.832;2022-08-01T08:34:50;24.10;89.60
47310;DHT22;33046;52.270;6.832;2022-08-01T08:36:57;24.10;90.00
47310;DHT22;33046;52.270;6.832;2022-08-01T08:39:04;24.10;89.70
47310;DHT22;33046;52.270;6.832;2022-08-01T08:41:11;24.20;89.70
47310;DHT22;33046;52.270;6.832;2022-08-01T08:43:20;24.10;89.40
47310;DHT22;33046;52.270;6.832;2022-08-01T08:45:28;24.10;88.90
47310;DHT22;33046;52.270;6.832;2022-08-01T08:47:35;24.10;88.80
47310;DHT22;33046;52.270;6.832;2022-08-01T08:49:43;24.10;89.00
47310;DHT22;33046;52.270;6.832;2022-08-01T08:51:51;24.20;89.00
47310;DHT22;33046;52.270;6.832;2022-08-01T08:53:58;24.30;88.70
47310;DHT22;33046;52.270;6.832;2022-08-01T08:56:07;24.30;88.40
47310;DHT22;33046;52.270;6.832;2022-08-01T08:58:15;24.40;88.00
47310;DHT22;33046;52.270;6.832;2022-08-01T09:00:25;24.40;87.90
47310;DHT22;33046;52.270;6.832;2022-08-01T09:02:32;24.40;87.90
47310;DHT22;33046;52.270;6.832;2022-08-01T09:04:39;24.40;87.60
47310;DHT22;33046;52.270;6.832;2022-08-01T09:06:46;24.40;87.30
47310;DHT22;33046;52.270;6.832;2022-08-01T09:08:53;24.40;87.00
47310;DHT22;33046;52.270;6.832;2022-08-01T09:11:00;24.40;87.10
47310;DHT22;33046;52.270;6.832;2022-08-01T09:13:10;24.40;87.20
47310;DHT22;33046;52.270;6.832;2022-08-01T09:15:17;24.40;87.40
47310;DHT22;33046;52.270;6.832;2022-08-01T09:17:25;24.40;87.20
47310;DHT22;33046;52.270;6.832;2022-08-01T09:19:36;24.40;86.90
47310;DHT22;33046;52.270;6.832;2022-08-01T09:21:56;24.40;86.90
47310;DHT22;33046;52.270;6.832;2022-08-01T09:24:12;24.40;86.90
47310;DHT22;33046;52.270;6.832;2022-08-01T09:26:21;24.40;86.60
47310;DHT22;33046;52.270;6.832;2022-08-01T09:28:28;24.30;86.20
47310;DHT22;33046;52.270;6.832;2022-08-01T09:30:38;24.30;86.10
47310;DHT22;33046;52.270;6.832;2022-08-01T09:32:57;24.30;86.70
47310;DHT22;33046;52.270;6.832;2022-08-01T09:35:25;24.30;86.50
47310;DHT22;33046;52.270;6.832;2022-08-01T09:37:32;24.40;86.00
47310;DHT22;33046;52.270;6.832;2022-08-01T09:39:38;24.40;85.70
47310;DHT22;33046;52.270;6.832;2022-08-01T09:41:45;24.40;86.00
47310;DHT22;33046;52.270;6.832;2022-08-01T09:43:52;24.50;85.80
47310;DHT22;33046;52.270;6.832;2022-08-01T09:46:03;24.50;86.00
47310;DHT22;33046;52.270;6.832;2022-08-01T09:48:12;24.60;86.00
47310;DHT22;33046;52.270;6.832;2022-08-01T09:50:18;24.60;85.60
47310;DHT22;33046;52.270;6.832;2022-08-01T09:52:27;24.70;84.80
47310;DHT22;33046;52.270;6.832;2022-08-01T09:54:34;24.70;85.00
47310;DHT22;33046;52.270;6.832;2022-08-01T09:56:41;24.70;85.10
47310;DHT22;33046;52.270;6.832;2022-08-01T09:58:54;24.70;84.90
47310;DHT22;33046;52.270;6.832;2022-08-01T10:01:04;24.70;84.80
47310;DHT22;33046;52.270;6.832;2022-08-01T10:03:21;24.80;84.60
47310;DHT22;33046;52.270;6.832;2022-08-01T10:05:33;24.80;84.40
47310;DHT22;33046;52.270;6.832;2022-08-01T10:07:55;24.80;84.60
47310;DHT22;33046;52.270;6.832;2022-08-01T10:10:10;24.80;84.20
47310;DHT22;33046;52.270;6.832;2022-08-01T10:12:19;24.80;84.10
47310;DHT22;33046;52.270;6.832;2022-08-01T10:14:27;24.80;85.10
47310;DHT22;33046;52.270;6.832;2022-08-01T10:16:35;24.80;84.40
47310;DHT22;33046;52.270;6.832;2022-08-01T10:18:44;24.80;83.70
47310;DHT22;33046;52.270;6.832;2022-08-01T10:20:53;24.90;84.00
47310;DHT22;33046;52.270;6.832;2022-08-01T10:23:02;24.90;83.30
47310;DHT22;33046;52.270;6.832;2022-08-01T10:25:10;25.00;82.00
47310;DHT22;33046;52.270;6.832;2022-08-01T10:27:18;24.90;82.80
47310;DHT22;33046;52.270;6.832;2022-08-01T10:29:26;25.00;82.50
47310;DHT22;33046;52.270;6.832;2022-08-01T10:31:33;25.00;79.40
47310;DHT22;33046;52.270;6.832;2022-08-01T10:33:40;25.10;81.20
47310;DHT22;33046;52.270;6.832;2022-08-01T10:35:49;25.10;82.40
47310;DHT22;33046;52.270;6.832;2022-08-01T10:37:56;25.10;82.20
47310;DHT22;33046;52.270;6.832;2022-08-01T10:40:04;25.20;82.10
47310;DHT22;33046;52.270;6.832;2022-08-01T10:42:33;25.20;82.20
47310;DHT22;33046;52.270;6.832;2022-08-01T10:44:41;25.30;82.20
47310;DHT22;33046;52.270;6.832;2022-08-01T10:46:50;25.30;79.10
47310;DHT22;33046;52.270;6.832;2022-08-01T10:49:03;25.40;81.00
47310;DHT22;33046;52.270;6.832;2022-08-01T10:51:12;25.40;81.00
47310;DHT22;33046;52.270;6.832;2022-08-01T10:53:21;25.30;79.10
47310;DHT22;33046;52.270;6.832;2022-08-01T10:55:28;25.40;79.00
47310;DHT22;33046;52.270;6.832;2022-08-01T10:57:42;25.40;79.30
47310;DHT22;33046;52.270;6.832;2022-08-01T10:59:50;25.40;78.90
47310;DHT22;33046;52.270;6.832;2022-08-01T11:01:58;25.40;80.00
47310;DHT22;33046;52.270;6.832;2022-08-01T11:04:08;25.40;79.20
47310;DHT22;33046;52.270;6.832;2022-08-01T11:06:22;25.40;79.70
47310;DHT22;33046;52.270;6.832;2022-08-01T11:08:30;25.40;79.50
47310;DHT22;33046;52.270;6.832;2022-08-01T11:10:39;25.40;79.60
47310;DHT22;33046;52.270;6.832;2022-08-01T11:12:46;25.40;77.80
47310;DHT22;33046;52.270;6.832;2022-08-01T11:15:18;25.40;76.60
47310;DHT22;33046;52.270;6.832;2022-08-01T11:17:33;25.40;76.40
47310;DHT22;33046;52.270;6.832;2022-08-01T11:20:06;25.50;77.90
47310;DHT22;33046;52.270;6.832;2022-08-01T11:22:14;25.50;77.00
47310;DHT22;33046;52.270;6.832;2022-08-01T11:24:54;25.50;78.20
47310;DHT22;33046;52.270;6.832;2022-08-01T11:27:17;25.60;78.70
47310;DHT22;33046;52.270;6.832;2022-08-01T11:29:24;25.60;77.50
47310;DHT22;33046;52.270;6.832;2022-08-01T11:31:31;25.60;78.40
47310;DHT22;33046;52.270;6.832;2022-08-01T11:33:48;25.60;77.50
47310;DHT22;33046;52.270;6.832;2022-08-01T11:36:16;25.60;77.90
47310;DHT22;33046;52.270;6.832;2022-08-01T11:38:26;25.70;78.20
47310;DHT22;33046;52.270;6.832;2022-08-01T11:40:33;25.70;78.40
47310;DHT22;33046;52.270;6.832;2022-08-01T11:42:40;25.70;78.50
47310;DHT22;33046;52.270;6.832;2022-08-01T11:44:50;25.70;78.90
47310;DHT22;33046;52.270;6.832;2022-08-01T11:46:59;25.70;79.00
47310;DHT22;33046;52.270;6.832;2022-08-01T11:49:29;25.80;79.00
47310;DHT22;33046;52.270;6.832;2022-08-01T11:51:36;25.80;78.70
47310;DHT22;33046;52.270;6.832;2022-08-01T11:53:47;25.80;79.10
47310;DHT22;33046;52.270;6.832;2022-08-01T11:55:54;25.80;79.20
47310;DHT22;33046;52.270;6.832;2022-08-01T11:58:02;25.80;79.00
47310;DHT22;33046;52.270;6.832;2022-08-01T12:00:12;25.80;78.90
47310;DHT22;33046;52.270;6.832;2022-08-01T12:02:21;25.90;79.30
47310;DHT22;33046;52.270;6.832;2022-08-01T12:04:46;25.90;79.30
47310;DHT22;33046;52.270;6.832;2022-08-01T12:06:53;25.90;78.90
47310;DHT22;33046;52.270;6.832;2022-08-01T12:09:20;25.90;79.20
47310;DHT22;33046;52.270;6.832;2022-08-01T12:11:27;25.90;79.20
47310;DHT22;33046;52.270;6.832;2022-08-01T12:13:41;26.00;79.30
47310;DHT22;33046;52.270;6.832;2022-08-01T12:15:49;26.00;79.30
47310;DHT22;33046;52.270;6.832;2022-08-01T12:17:59;26.00;78.80
47310;DHT22;33046;52.270;6.832;2022-08-01T12:20:08;26.00;78.70
47310;DHT22;33046;52.270;6.832;2022-08-01T12:22:15;26.10;78.90
47310;DHT22;33046;52.270;6.832;2022-08-01T12:24:23;26.10;78.70
47310;DHT22;33046;52.270;6.832;2022-08-01T12:26:39;26.00;78.80
47310;DHT22;33046;52.270;6.832;2022-08-01T12:28:46;26.10;78.90
47310;DHT22;33046;52.270;6.832;2022-08-01T12:30:56;26.00;79.00
47310;DHT22;33046;52.270;6.832;2022-08-01T12:33:04;26.00;79.00
47310;DHT22;33046;52.270;6.832;2022-08-01T12:35:12;26.00;78.90
47310;DHT22;33046;52.270;6.832;2022-08-01T12:37:22;26.00;78.80
47310;DHT22;33046;52.270;6.832;2022-08-01T12:39:32;26.00;79.00
47310;DHT22;33046;52.270;6.832;2022-08-01T12:41:42;26.00;79.20
47310;DHT22;33046;52.270;6.832;2022-08-01T12:43:49;26.10;79.20
47310;DHT22;33046;52.270;6.832;2022-08-01T12:45:58;26.00;78.80
47310;DHT22;33046;52.270;6.832;2022-08-01T12:48:08;26.10;79.00
47310;DHT22;33046;52.270;6.832;2022-08-01T12:50:17;26.10;78.80
47310;DHT22;33046;52.270;6.832;2022-08-01T12:52:25;26.10;78.60
47310;DHT22;33046;52.270;6.832;2022-08-01T12:55:03;26.10;78.80
47310;DHT22;33046;52.270;6.832;2022-08-01T12:57:22;26.10;78.30
47310;DHT22;33046;52.270;6.832;2022-08-01T12:59:28;26.20;78.60
47310;DHT22;33046;52.270;6.832;2022-08-01T13:01:35;26.20;78.90
47310;DHT22;33046;52.270;6.832;2022-08-01T13:03:57;26.20;78.90
47310;DHT22;33046;52.270;6.832;2022-08-01T13:06:11;26.10;78.90
47310;DHT22;33046;52.270;6.832;2022-08-01T13:08:20;26.10;78.90
47310;DHT22;33046;52.270;6.832;2022-08-01T13:10:29;26.10;79.00
47310;DHT22;33046;52.270;6.832;2022-08-01T13:12:37;26.10;79.00
47310;DHT22;33046;52.270;6.832;2022-08-01T13:14:44;26.10;78.90
47310;DHT22;33046;52.270;6.832;2022-08-01T13:16:50;26.10;79.30
47310;DHT22;33046;52.270;6.832;2022-08-01T13:19:02;26.10;79.40
47310;DHT22;33046;52.270;6.832;2022-08-01T13:21:11;26.10;78.90
47310;DHT22;33046;52.270;6.832;2022-08-01T13:23:19;26.20;78.90
47310;DHT22;33046;52.270;6.832;2022-08-01T13:25:26;26.20;78.70
47310;DHT22;33046;52.270;6.832;2022-08-01T13:27:34;26.20;78.90
47310;DHT22;33046;52.270;6.832;2022-08-01T13:29:41;26.20;79.20
47310;DHT22;33046;52.270;6.832;2022-08-01T13:31:48;26.20;78.00
47310;DHT22;33046;52.270;6.832;2022-08-01T13:33:58;26.20;78.70
47310;DHT22;33046;52.270;6.832;2022-08-01T13:36:05;26.30;78.20